sensor_id;sensor_type;location;lat;lon;timestamp;P1;durP1;ratioP1;P2;durP2;ratioP2
84315;SDS011;74496;52.236;5.164;2024-03-02T00:01:24;1.98;;;0.90;;
84315;SDS011;74496;52.236;5.164;2024-03-02T00:03:51;1.10;;;0.98;;
84315;SDS011;74496;52.236;5.164;2024-03-02T00:06:19;2.90;;;0.97;;
84315;SDS011;74496;52.236;5.164;2024-03-02T00:08:47;3.08;;;1.27;;
84315;SDS011;74496;52.236;5.164;2024-03-02T00:11:14;1.98;;;1.13;;
84315;SDS011;74496;52.236;5.164;2024-03-02T00:13:41;4.45;;;1.20;;
84315;SDS011;74496;52.236;5.164;2024-03-02T00:16:08;2.55;;;1.35;;
84315;SDS011;74496;52.236;5.164;2024-03-02T00:18:36;5.47;;;1.20;;
84315;SDS011;74496;52.236;5.164;2024-03-02T00:21:03;1.30;;;1.05;;
84315;SDS011;74496;52.236;5.164;2024-03-02T00:23:36;1.10;;;0.93;;
84315;SDS011;74496;52.236;5.164;2024-03-02T00:26:03;3.47;;;1.48;;
84315;SDS011;74496;52.236;5.164;2024-03-02T00:28:33;3.22;;;1.20;;
84315;SDS011;74496;52.236;5.164;2024-03-02T00:31:04;2.27;;;1.37;;
84315;SDS011;74496;52.236;5.164;2024-03-02T00:33:33;1.05;;;0.90;;
84315;SDS011;74496;52.236;5.164;2024-03-02T00:36:01;3.10;;;1.10;;
84315;SDS011;74496;52.236;5.164;2024-03-02T00:38:28;1.25;;;0.80;;
84315;SDS011;74496;52.236;5.164;2024-03-02T00:40:57;2.00;;;0.85;;
84315;SDS011;74496;52.236;5.164;2024-03-02T00:43:44;0.90;;;0.77;;
84315;SDS011;74496;52.236;5.164;2024-03-02T00:46:15;0.85;;;0.60;;
84315;SDS011;74496;52.236;5.164;2024-03-02T00:51:29;0.50;;;0.50;;
84315;SDS011;74496;52.236;5.164;2024-03-02T00:53:58;0.40;;;0.40;;
84315;SDS011;74496;52.236;5.164;2024-03-02T00:56:27;0.40;;;0.40;;
84315;SDS011;74496;52.236;5.164;2024-03-02T00:58:54;1.48;;;0.55;;
84315;SDS011;74496;52.236;5.164;2024-03-02T01:01:20;0.40;;;0.40;;
84315;SDS011;74496;52.236;5.164;2024-03-02T01:03:47;0.65;;;0.60;;
84315;SDS011;74496;52.236;5.164;2024-03-02T01:06:15;0.50;;;0.50;;
84315;SDS011;74496;52.236;5.164;2024-03-02T01:08:43;0.60;;;0.60;;
84315;SDS011;74496;52.236;5.164;2024-03-02T01:11:11;0.50;;;0.50;;
84315;SDS011;74496;52.236;5.164;2024-03-02T01:13:39;0.85;;;0.50;;
84315;SDS011;74496;52.236;5.164;2024-03-02T01:16:06;1.02;;;0.40;;
84315;SDS011;74496;52.236;5.164;2024-03-02T01:18:33;1.58;;;0.50;;
84315;SDS011;74496;52.236;5.164;2024-03-02T01:20:59;0.67;;;0.67;;
84315;SDS011;74496;52.236;5.164;2024-03-02T01:23:26;0.88;;;0.52;;
84315;SDS011;74496;52.236;5.164;2024-03-02T01:25:53;0.73;;;0.63;;
84315;SDS011;74496;52.236;5.164;2024-03-02T01:28:20;0.75;;;0.50;;
84315;SDS011;74496;52.236;5.164;2024-03-02T01:30:48;0.95;;;0.60;;
84315;SDS011;74496;52.236;5.164;2024-03-02T01:33:16;0.47;;;0.47;;
84315;SDS011;74496;52.236;5.164;2024-03-02T01:35:43;0.50;;;0.50;;
84315;SDS011;74496;52.236;5.164;2024-03-02T01:38:10;0.60;;;0.50;;
84315;SDS011;74496;52.236;5.164;2024-03-02T01:40:37;1.35;;;0.50;;
84315;SDS011;74496;52.236;5.164;2024-03-02T01:43:04;3.50;;;0.60;;
84315;SDS011;74496;52.236;5.164;2024-03-02T01:45:31;0.50;;;0.50;;
84315;SDS011;74496;52.236;5.164;2024-03-02T01:47:59;0.60;;;0.50;;
84315;SDS011;74496;52.236;5.164;2024-03-02T01:50:26;0.68;;;0.60;;
84315;SDS011;74496;52.236;5.164;2024-03-02T01:52:54;0.50;;;0.50;;
84315;SDS011;74496;52.236;5.164;2024-03-02T01:55:21;2.35;;;0.52;;
84315;SDS011;74496;52.236;5.164;2024-03-02T01:57:48;1.17;;;0.57;;
84315;SDS011;74496;52.236;5.164;2024-03-02T02:00:17;0.70;;;0.60;;
84315;SDS011;74496;52.236;5.164;2024-03-02T02:02:44;0.40;;;0.40;;
84315;SDS011;74496;52.236;5.164;2024-03-02T02:05:13;0.98;;;0.98;;
84315;SDS011;74496;52.236;5.164;2024-03-02T02:07:40;0.50;;;0.50;;
84315;SDS011;74496;52.236;5.164;2024-03-02T02:10:07;0.60;;;0.60;;
84315;SDS011;74496;52.236;5.164;2024-03-02T02:12:34;1.00;;;0.60;;
84315;SDS011;74496;52.236;5.164;2024-03-02T02:15:01;0.80;;;0.80;;
84315;SDS011;74496;52.236;5.164;2024-03-02T02:17:29;0.55;;;0.55;;
84315;SDS011;74496;52.236;5.164;2024-03-02T02:19:55;0.70;;;0.70;;
84315;SDS011;74496;52.236;5.164;2024-03-02T02:22:23;0.60;;;0.60;;
84315;SDS011;74496;52.236;5.164;2024-03-02T02:24:50;0.57;;;0.47;;
84315;SDS011;74496;52.236;5.164;2024-03-02T02:27:17;1.00;;;0.60;;
84315;SDS011;74496;52.236;5.164;2024-03-02T02:29:43;0.60;;;0.50;;
84315;SDS011;74496;52.236;5.164;2024-03-02T02:32:10;0.60;;;0.60;;
84315;SDS011;74496;52.236;5.164;2024-03-02T02:34:37;0.60;;;0.60;;
84315;SDS011;74496;52.236;5.164;2024-03-02T02:37:03;2.08;;;0.60;;
84315;SDS011;74496;52.236;5.164;2024-03-02T02:39:31;0.50;;;0.50;;
84315;SDS011;74496;52.236;5.164;2024-03-02T02:41:58;0.90;;;0.60;;
84315;SDS011;74496;52.236;5.164;2024-03-02T02:44:26;0.73;;;0.65;;
84315;SDS011;74496;52.236;5.164;2024-03-02T02:46:52;0.80;;;0.70;;
84315;SDS011;74496;52.236;5.164;2024-03-02T02:49:19;0.82;;;0.60;;
84315;SDS011;74496;52.236;5.164;2024-03-02T02:51:46;2.85;;;0.50;;
84315;SDS011;74496;52.236;5.164;2024-03-02T02:54:12;0.70;;;0.70;;
84315;SDS011;74496;52.236;5.164;2024-03-02T02:56:40;0.88;;;0.68;;
84315;SDS011;74496;52.236;5.164;2024-03-02T02:59:07;1.67;;;0.70;;
84315;SDS011;74496;52.236;5.164;2024-03-02T03:01:34;1.67;;;0.80;;
84315;SDS011;74496;52.236;5.164;2024-03-02T03:04:00;1.05;;;0.60;;
84315;SDS011;74496;52.236;5.164;2024-03-02T03:06:27;0.60;;;0.50;;
84315;SDS011;74496;52.236;5.164;2024-03-02T03:08:54;1.42;;;0.80;;
84315;SDS011;74496;52.236;5.164;2024-03-02T03:11:20;0.93;;;0.70;;
84315;SDS011;74496;52.236;5.164;2024-03-02T03:13:49;0.93;;;0.93;;
84315;SDS011;74496;52.236;5.164;2024-03-02T03:16:16;1.08;;;0.60;;
84315;SDS011;74496;52.236;5.164;2024-03-02T03:18:42;1.13;;;0.60;;
84315;SDS011;74496;52.236;5.164;2024-03-02T03:21:09;0.70;;;0.65;;
84315;SDS011;74496;52.236;5.164;2024-03-02T03:23:36;0.70;;;0.70;;
84315;SDS011;74496;52.236;5.164;2024-03-02T03:26:03;1.88;;;0.75;;
84315;SDS011;74496;52.236;5.164;2024-03-02T03:28:30;0.70;;;0.70;;
84315;SDS011;74496;52.236;5.164;2024-03-02T03:30:58;1.60;;;0.65;;
84315;SDS011;74496;52.236;5.164;2024-03-02T03:33:24;0.82;;;0.60;;
84315;SDS011;74496;52.236;5.164;2024-03-02T03:35:51;0.67;;;0.60;;
84315;SDS011;74496;52.236;5.164;2024-03-02T03:38:18;0.93;;;0.70;;
84315;SDS011;74496;52.236;5.164;2024-03-02T03:40:45;0.68;;;0.50;;
84315;SDS011;74496;52.236;5.164;2024-03-02T03:43:12;2.75;;;0.60;;
84315;SDS011;74496;52.236;5.164;2024-03-02T03:45:39;0.65;;;0.60;;
84315;SDS011;74496;52.236;5.164;2024-03-02T03:48:07;0.80;;;0.80;;
84315;SDS011;74496;52.236;5.164;2024-03-02T03:50:34;1.02;;;0.60;;
84315;SDS011;74496;52.236;5.164;2024-03-02T03:53:01;0.70;;;0.65;;
84315;SDS011;74496;52.236;5.164;2024-03-02T03:55:27;1.05;;;0.60;;
84315;SDS011;74496;52.236;5.164;2024-03-02T03:57:54;0.65;;;0.65;;
84315;SDS011;74496;52.236;5.164;2024-03-02T04:00:21;0.70;;;0.60;;
84315;SDS011;74496;52.236;5.164;2024-03-02T04:02:47;1.48;;;0.75;;
84315;SDS011;74496;52.236;5.164;2024-03-02T04:05:15;0.98;;;0.85;;
84315;SDS011;74496;52.236;5.164;2024-03-02T04:07:42;0.68;;;0.60;;
84315;SDS011;74496;52.236;5.164;2024-03-02T04:10:09;0.50;;;0.50;;
84315;SDS011;74496;52.236;5.164;2024-03-02T04:12:37;1.03;;;0.80;;
84315;SDS011;74496;52.236;5.164;2024-03-02T04:15:04;1.50;;;0.70;;
84315;SDS011;74496;52.236;5.164;2024-03-02T04:17:32;0.60;;;0.50;;
84315;SDS011;74496;52.236;5.164;2024-03-02T04:20:00;5.05;;;0.80;;
84315;SDS011;74496;52.236;5.164;2024-03-02T04:22:32;1.05;;;0.55;;
84315;SDS011;74496;52.236;5.164;2024-03-02T04:24:59;0.57;;;0.50;;
84315;SDS011;74496;52.236;5.164;2024-03-02T04:27:26;0.50;;;0.50;;
84315;SDS011;74496;52.236;5.164;2024-03-02T04:29:53;1.60;;;0.60;;
84315;SDS011;74496;52.236;5.164;2024-03-02T04:32:19;0.60;;;0.60;;
84315;SDS011;74496;52.236;5.164;2024-03-02T04:34:46;2.05;;;0.55;;
84315;SDS011;74496;52.236;5.164;2024-03-02T04:37:13;0.70;;;0.70;;
84315;SDS011;74496;52.236;5.164;2024-03-02T04:39:41;1.73;;;0.80;;
84315;SDS011;74496;52.236;5.164;2024-03-02T04:42:06;1.77;;;0.57;;
84315;SDS011;74496;52.236;5.164;2024-03-02T04:44:33;0.82;;;0.60;;
84315;SDS011;74496;52.236;5.164;2024-03-02T04:47:00;0.50;;;0.50;;
84315;SDS011;74496;52.236;5.164;2024-03-02T04:49:27;3.03;;;0.80;;
84315;SDS011;74496;52.236;5.164;2024-03-02T04:51:53;4.03;;;0.70;;
84315;SDS011;74496;52.236;5.164;2024-03-02T04:54:20;1.38;;;0.77;;
84315;SDS011;74496;52.236;5.164;2024-03-02T04:56:48;0.60;;;0.60;;
84315;SDS011;74496;52.236;5.164;2024-03-02T04:59:15;1.13;;;0.80;;
84315;SDS011;74496;52.236;5.164;2024-03-02T05:01:43;3.07;;;0.80;;
84315;SDS011;74496;52.236;5.164;2024-03-02T05:04:10;0.90;;;0.68;;
84315;SDS011;74496;52.236;5.164;2024-03-02T05:06:37;0.82;;;0.50;;
84315;SDS011;74496;52.236;5.164;2024-03-02T05:09:05;0.73;;;0.63;;
84315;SDS011;74496;52.236;5.164;2024-03-02T05:11:32;1.00;;;0.90;;
84315;SDS011;74496;52.236;5.164;2024-03-02T05:14:22;1.20;;;0.70;;
84315;SDS011;74496;52.236;5.164;2024-03-02T05:16:49;1.52;;;0.70;;
84315;SDS011;74496;52.236;5.164;2024-03-02T05:19:16;5.38;;;0.88;;
84315;SDS011;74496;52.236;5.164;2024-03-02T05:21:42;1.80;;;0.70;;
84315;SDS011;74496;52.236;5.164;2024-03-02T05:24:09;2.42;;;0.60;;
84315;SDS011;74496;52.236;5.164;2024-03-02T05:26:36;0.80;;;0.67;;
84315;SDS011;74496;52.236;5.164;2024-03-02T05:29:02;4.45;;;0.70;;
84315;SDS011;74496;52.236;5.164;2024-03-02T05:31:30;2.30;;;0.70;;
84315;SDS011;74496;52.236;5.164;2024-03-02T05:33:57;1.30;;;0.70;;
84315;SDS011;74496;52.236;5.164;2024-03-02T05:36:24;0.75;;;0.73;;
84315;SDS011;74496;52.236;5.164;2024-03-02T05:38:51;1.63;;;0.70;;
84315;SDS011;74496;52.236;5.164;2024-03-02T05:41:17;2.63;;;0.70;;
84315;SDS011;74496;52.236;5.164;2024-03-02T05:43:44;3.75;;;0.70;;
84315;SDS011;74496;52.236;5.164;2024-03-02T05:46:11;0.55;;;0.55;;
84315;SDS011;74496;52.236;5.164;2024-03-02T05:48:39;1.27;;;0.80;;
84315;SDS011;74496;52.236;5.164;2024-03-02T05:51:06;0.82;;;0.68;;
84315;SDS011;74496;52.236;5.164;2024-03-02T05:53:33;1.65;;;0.95;;
84315;SDS011;74496;52.236;5.164;2024-03-02T05:56:00;1.77;;;0.60;;
84315;SDS011;74496;52.236;5.164;2024-03-02T05:58:26;0.77;;;0.52;;
84315;SDS011;74496;52.236;5.164;2024-03-02T06:01:03;1.55;;;0.63;;
84315;SDS011;74496;52.236;5.164;2024-03-02T06:03:30;2.63;;;0.70;;
84315;SDS011;74496;52.236;5.164;2024-03-02T06:05:58;0.88;;;0.70;;
84315;SDS011;74496;52.236;5.164;2024-03-02T06:08:26;1.70;;;0.75;;
84315;SDS011;74496;52.236;5.164;2024-03-02T06:10:52;4.00;;;0.70;;
84315;SDS011;74496;52.236;5.164;2024-03-02T06:13:19;1.35;;;0.80;;
84315;SDS011;74496;52.236;5.164;2024-03-02T06:15:46;1.03;;;0.90;;
84315;SDS011;74496;52.236;5.164;2024-03-02T06:18:12;1.17;;;0.70;;
84315;SDS011;74496;52.236;5.164;2024-03-02T06:20:39;1.98;;;0.70;;
84315;SDS011;74496;52.236;5.164;2024-03-02T06:23:07;2.33;;;0.60;;
84315;SDS011;74496;52.236;5.164;2024-03-02T06:25:34;4.40;;;1.08;;
84315;SDS011;74496;52.236;5.164;2024-03-02T06:28:01;0.70;;;0.70;;
84315;SDS011;74496;52.236;5.164;2024-03-02T06:30:29;1.08;;;0.68;;
84315;SDS011;74496;52.236;5.164;2024-03-02T06:32:56;3.70;;;0.70;;
84315;SDS011;74496;52.236;5.164;2024-03-02T06:35:22;0.90;;;0.60;;
84315;SDS011;74496;52.236;5.164;2024-03-02T06:37:49;0.88;;;0.70;;
84315;SDS011;74496;52.236;5.164;2024-03-02T06:40:17;2.10;;;0.60;;
84315;SDS011;74496;52.236;5.164;2024-03-02T06:42:44;2.05;;;0.70;;
84315;SDS011;74496;52.236;5.164;2024-03-02T06:45:11;2.42;;;0.77;;
84315;SDS011;74496;52.236;5.164;2024-03-02T06:47:37;2.97;;;0.90;;
84315;SDS011;74496;52.236;5.164;2024-03-02T06:50:04;1.67;;;0.70;;
84315;SDS011;74496;52.236;5.164;2024-03-02T06:52:32;1.67;;;0.60;;
84315;SDS011;74496;52.236;5.164;2024-03-02T06:54:59;2.13;;;0.70;;
84315;SDS011;74496;52.236;5.164;2024-03-02T06:57:27;3.88;;;0.70;;
84315;SDS011;74496;52.236;5.164;2024-03-02T06:59:54;2.58;;;1.02;;
84315;SDS011;74496;52.236;5.164;2024-03-02T07:02:23;1.90;;;0.70;;
84315;SDS011;74496;52.236;5.164;2024-03-02T07:04:52;1.43;;;0.67;;
84315;SDS011;74496;52.236;5.164;2024-03-02T07:07:19;0.95;;;0.70;;
84315;SDS011;74496;52.236;5.164;2024-03-02T07:09:46;1.45;;;0.70;;
84315;SDS011;74496;52.236;5.164;2024-03-02T07:12:13;1.25;;;0.80;;
84315;SDS011;74496;52.236;5.164;2024-03-02T07:14:41;0.80;;;0.70;;
84315;SDS011;74496;52.236;5.164;2024-03-02T07:17:33;2.35;;;0.90;;
84315;SDS011;74496;52.236;5.164;2024-03-02T07:20:00;1.77;;;0.70;;
84315;SDS011;74496;52.236;5.164;2024-03-02T07:22:28;4.00;;;0.98;;
84315;SDS011;74496;52.236;5.164;2024-03-02T07:24:56;2.20;;;0.63;;
84315;SDS011;74496;52.236;5.164;2024-03-02T07:27:22;4.03;;;0.80;;
84315;SDS011;74496;52.236;5.164;2024-03-02T07:29:51;3.30;;;0.63;;
84315;SDS011;74496;52.236;5.164;2024-03-02T07:32:20;1.15;;;0.70;;
84315;SDS011;74496;52.236;5.164;2024-03-02T07:34:47;1.25;;;0.60;;
84315;SDS011;74496;52.236;5.164;2024-03-02T07:37:16;1.60;;;0.75;;
84315;SDS011;74496;52.236;5.164;2024-03-02T07:39:43;0.80;;;0.80;;
84315;SDS011;74496;52.236;5.164;2024-03-02T07:42:10;1.53;;;0.90;;
84315;SDS011;74496;52.236;5.164;2024-03-02T07:44:37;0.90;;;0.73;;
84315;SDS011;74496;52.236;5.164;2024-03-02T07:47:05;2.15;;;0.80;;
84315;SDS011;74496;52.236;5.164;2024-03-02T07:49:33;2.72;;;0.80;;
84315;SDS011;74496;52.236;5.164;2024-03-02T07:51:59;2.78;;;0.88;;
84315;SDS011;74496;52.236;5.164;2024-03-02T07:54:26;1.67;;;0.70;;
84315;SDS011;74496;52.236;5.164;2024-03-02T07:56:53;2.03;;;0.80;;
84315;SDS011;74496;52.236;5.164;2024-03-02T07:59:19;2.15;;;0.60;;
84315;SDS011;74496;52.236;5.164;2024-03-02T08:01:48;1.02;;;0.70;;
84315;SDS011;74496;52.236;5.164;2024-03-02T08:04:17;3.30;;;0.90;;
84315;SDS011;74496;52.236;5.164;2024-03-02T08:06:44;0.83;;;0.60;;
84315;SDS011;74496;52.236;5.164;2024-03-02T08:09:12;2.75;;;0.80;;
84315;SDS011;74496;52.236;5.164;2024-03-02T08:11:39;4.95;;;0.95;;
84315;SDS011;74496;52.236;5.164;2024-03-02T08:14:05;1.33;;;0.90;;
84315;SDS011;74496;52.236;5.164;2024-03-02T08:16:32;4.43;;;0.82;;
84315;SDS011;74496;52.236;5.164;2024-03-02T08:18:59;1.70;;;0.70;;
84315;SDS011;74496;52.236;5.164;2024-03-02T08:21:27;2.67;;;0.85;;
84315;SDS011;74496;52.236;5.164;2024-03-02T08:23:55;2.10;;;0.70;;
84315;SDS011;74496;52.236;5.164;2024-03-02T08:26:23;1.20;;;0.68;;
84315;SDS011;74496;52.236;5.164;2024-03-02T08:28:50;1.63;;;0.82;;
84315;SDS011;74496;52.236;5.164;2024-03-02T08:31:16;1.93;;;0.90;;
84315;SDS011;74496;52.236;5.164;2024-03-02T08:33:43;2.75;;;0.80;;
84315;SDS011;74496;52.236;5.164;2024-03-02T08:36:10;1.90;;;0.80;;
84315;SDS011;74496;52.236;5.164;2024-03-02T08:38:38;1.80;;;0.98;;
84315;SDS011;74496;52.236;5.164;2024-03-02T08:41:05;2.70;;;0.88;;
84315;SDS011;74496;52.236;5.164;2024-03-02T08:43:32;0.97;;;0.90;;
84315;SDS011;74496;52.236;5.164;2024-03-02T08:45:59;2.22;;;1.00;;
84315;SDS011;74496;52.236;5.164;2024-03-02T08:48:26;1.60;;;1.00;;
84315;SDS011;74496;52.236;5.164;2024-03-02T08:50:52;1.45;;;0.70;;
84315;SDS011;74496;52.236;5.164;2024-03-02T08:53:20;3.08;;;0.80;;
84315;SDS011;74496;52.236;5.164;2024-03-02T08:55:48;3.33;;;0.80;;
84315;SDS011;74496;52.236;5.164;2024-03-02T08:58:15;4.63;;;0.80;;
84315;SDS011;74496;52.236;5.164;2024-03-02T09:00:42;5.65;;;0.93;;
84315;SDS011;74496;52.236;5.164;2024-03-02T09:03:09;3.45;;;0.88;;
84315;SDS011;74496;52.236;5.164;2024-03-02T09:05:35;1.50;;;0.80;;
84315;SDS011;74496;52.236;5.164;2024-03-02T09:08:02;2.97;;;0.80;;
84315;SDS011;74496;52.236;5.164;2024-03-02T09:10:29;2.22;;;0.70;;
84315;SDS011;74496;52.236;5.164;2024-03-02T09:12:57;3.85;;;0.90;;
84315;SDS011;74496;52.236;5.164;2024-03-02T09:15:24;1.00;;;0.80;;
84315;SDS011;74496;52.236;5.164;2024-03-02T09:17:51;2.08;;;0.95;;
84315;SDS011;74496;52.236;5.164;2024-03-02T09:20:18;2.70;;;1.00;;
84315;SDS011;74496;52.236;5.164;2024-03-02T09:22:44;3.95;;;0.98;;
84315;SDS011;74496;52.236;5.164;2024-03-02T09:25:12;4.00;;;0.88;;
84315;SDS011;74496;52.236;5.164;2024-03-02T09:27:39;6.70;;;0.80;;
84315;SDS011;74496;52.236;5.164;2024-03-02T09:30:09;6.22;;;0.80;;
84315;SDS011;74496;52.236;5.164;2024-03-02T09:32:37;3.80;;;0.87;;
84315;SDS011;74496;52.236;5.164;2024-03-02T09:35:04;1.70;;;0.90;;
84315;SDS011;74496;52.236;5.164;2024-03-02T09:37:31;3.03;;;0.80;;
84315;SDS011;74496;52.236;5.164;2024-03-02T09:39:57;8.27;;;1.00;;
84315;SDS011;74496;52.236;5.164;2024-03-02T09:42:24;2.63;;;0.93;;
84315;SDS011;74496;52.236;5.164;2024-03-02T09:44:52;4.07;;;0.90;;
84315;SDS011;74496;52.236;5.164;2024-03-02T09:47:20;6.65;;;1.08;;
84315;SDS011;74496;52.236;5.164;2024-03-02T09:49:47;3.78;;;0.85;;
84315;SDS011;74496;52.236;5.164;2024-03-02T09:52:13;3.63;;;1.00;;
84315;SDS011;74496;52.236;5.164;2024-03-02T09:54:41;4.20;;;1.23;;
84315;SDS011;74496;52.236;5.164;2024-03-02T09:57:08;8.07;;;1.10;;
84315;SDS011;74496;52.236;5.164;2024-03-02T09:59:35;5.13;;;1.20;;
84315;SDS011;74496;52.236;5.164;2024-03-02T10:02:02;4.38;;;1.02;;
84315;SDS011;74496;52.236;5.164;2024-03-02T10:04:33;5.75;;;1.05;;
84315;SDS011;74496;52.236;5.164;2024-03-02T10:07:13;4.90;;;1.02;;
84315;SDS011;74496;52.236;5.164;2024-03-02T10:09:41;3.70;;;1.20;;
84315;SDS011;74496;52.236;5.164;2024-03-02T10:12:10;3.47;;;1.10;;
84315;SDS011;74496;52.236;5.164;2024-03-02T10:14:38;3.58;;;0.98;;
84315;SDS011;74496;52.236;5.164;2024-03-02T10:17:05;3.28;;;1.10;;
84315;SDS011;74496;52.236;5.164;2024-03-02T10:19:34;2.75;;;1.10;;
84315;SDS011;74496;52.236;5.164;2024-03-02T10:22:02;4.73;;;1.10;;
84315;SDS011;74496;52.236;5.164;2024-03-02T10:24:34;7.97;;;1.10;;
84315;SDS011;74496;52.236;5.164;2024-03-02T10:27:06;2.70;;;0.88;;
84315;SDS011;74496;52.236;5.164;2024-03-02T10:29:36;6.47;;;1.20;;
84315;SDS011;74496;52.236;5.164;2024-03-02T10:32:04;1.80;;;1.10;;
84315;SDS011;74496;52.236;5.164;2024-03-02T10:34:33;3.97;;;0.97;;
84315;SDS011;74496;52.236;5.164;2024-03-02T10:37:01;4.38;;;1.48;;
84315;SDS011;74496;52.236;5.164;2024-03-02T10:39:28;3.78;;;1.35;;
84315;SDS011;74496;52.236;5.164;2024-03-02T10:41:56;6.03;;;1.20;;
84315;SDS011;74496;52.236;5.164;2024-03-02T10:44:24;2.22;;;0.90;;
84315;SDS011;74496;52.236;5.164;2024-03-02T10:46:52;1.83;;;1.10;;
84315;SDS011;74496;52.236;5.164;2024-03-02T10:49:22;2.67;;;0.90;;
84315;SDS011;74496;52.236;5.164;2024-03-02T10:51:51;4.20;;;1.10;;
84315;SDS011;74496;52.236;5.164;2024-03-02T10:54:18;7.68;;;1.20;;
84315;SDS011;74496;52.236;5.164;2024-03-02T10:56:51;2.20;;;1.15;;
84315;SDS011;74496;52.236;5.164;2024-03-02T10:59:21;4.47;;;1.00;;
84315;SDS011;74496;52.236;5.164;2024-03-02T11:01:53;1.95;;;0.80;;
84315;SDS011;74496;52.236;5.164;2024-03-02T11:04:22;3.30;;;0.93;;
84315;SDS011;74496;52.236;5.164;2024-03-02T11:06:54;5.30;;;1.10;;
84315;SDS011;74496;52.236;5.164;2024-03-02T11:09:27;4.10;;;1.05;;
84315;SDS011;74496;52.236;5.164;2024-03-02T11:11:58;7.40;;;1.40;;
84315;SDS011;74496;52.236;5.164;2024-03-02T11:14:29;4.22;;;0.90;;
84315;SDS011;74496;52.236;5.164;2024-03-02T11:16:58;3.63;;;1.33;;
84315;SDS011;74496;52.236;5.164;2024-03-02T11:19:26;2.58;;;0.90;;
84315;SDS011;74496;52.236;5.164;2024-03-02T11:21:55;1.85;;;1.10;;
84315;SDS011;74496;52.236;5.164;2024-03-02T11:24:28;5.27;;;1.30;;
84315;SDS011;74496;52.236;5.164;2024-03-02T11:26:58;4.10;;;0.90;;
84315;SDS011;74496;52.236;5.164;2024-03-02T11:29:43;3.20;;;1.27;;
84315;SDS011;74496;52.236;5.164;2024-03-02T11:32:17;2.55;;;1.15;;
84315;SDS011;74496;52.236;5.164;2024-03-02T11:34:47;3.15;;;1.25;;
84315;SDS011;74496;52.236;5.164;2024-03-02T11:37:17;3.47;;;1.17;;
84315;SDS011;74496;52.236;5.164;2024-03-02T11:39:45;2.95;;;1.63;;
84315;SDS011;74496;52.236;5.164;2024-03-02T11:42:14;11.90;;;1.40;;
84315;SDS011;74496;52.236;5.164;2024-03-02T11:44:42;3.25;;;1.10;;
84315;SDS011;74496;52.236;5.164;2024-03-02T11:47:11;6.55;;;1.45;;
84315;SDS011;74496;52.236;5.164;2024-03-02T11:49:41;2.27;;;1.00;;
84315;SDS011;74496;52.236;5.164;2024-03-02T11:52:10;9.85;;;1.42;;
84315;SDS011;74496;52.236;5.164;2024-03-02T11:54:39;1.15;;;0.90;;
84315;SDS011;74496;52.236;5.164;2024-03-02T11:57:11;1.52;;;1.10;;
84315;SDS011;74496;52.236;5.164;2024-03-02T11:59:39;1.30;;;1.10;;
84315;SDS011;74496;52.236;5.164;2024-03-02T12:02:05;1.70;;;0.90;;
84315;SDS011;74496;52.236;5.164;2024-03-02T12:04:32;2.95;;;0.90;;
84315;SDS011;74496;52.236;5.164;2024-03-02T12:07:01;3.20;;;1.13;;
84315;SDS011;74496;52.236;5.164;2024-03-02T12:09:29;2.25;;;1.10;;
84315;SDS011;74496;52.236;5.164;2024-03-02T12:12:05;3.10;;;1.00;;
84315;SDS011;74496;52.236;5.164;2024-03-02T12:14:33;3.00;;;0.93;;
84315;SDS011;74496;52.236;5.164;2024-03-02T12:17:01;2.90;;;1.50;;
84315;SDS011;74496;52.236;5.164;2024-03-02T12:19:28;2.22;;;1.10;;
84315;SDS011;74496;52.236;5.164;2024-03-02T12:21:55;3.13;;;1.30;;
84315;SDS011;74496;52.236;5.164;2024-03-02T12:24:22;3.53;;;1.02;;
84315;SDS011;74496;52.236;5.164;2024-03-02T12:26:50;5.37;;;1.27;;
84315;SDS011;74496;52.236;5.164;2024-03-02T12:29:19;1.35;;;0.90;;
84315;SDS011;74496;52.236;5.164;2024-03-02T12:31:47;1.50;;;1.27;;
84315;SDS011;74496;52.236;5.164;2024-03-02T12:34:15;3.72;;;1.60;;
84315;SDS011;74496;52.236;5.164;2024-03-02T12:36:43;1.90;;;1.17;;
84315;SDS011;74496;52.236;5.164;2024-03-02T12:39:12;2.00;;;1.30;;
84315;SDS011;74496;52.236;5.164;2024-03-02T12:41:39;1.35;;;1.13;;
84315;SDS011;74496;52.236;5.164;2024-03-02T12:44:07;1.63;;;1.10;;
84315;SDS011;74496;52.236;5.164;2024-03-02T12:46:35;3.60;;;1.30;;
84315;SDS011;74496;52.236;5.164;2024-03-02T12:49:07;2.47;;;1.08;;
84315;SDS011;74496;52.236;5.164;2024-03-02T12:51:36;4.60;;;1.30;;
84315;SDS011;74496;52.236;5.164;2024-03-02T12:54:03;1.95;;;1.27;;
84315;SDS011;74496;52.236;5.164;2024-03-02T12:56:30;2.50;;;1.33;;
84315;SDS011;74496;52.236;5.164;2024-03-02T12:58:58;2.55;;;1.40;;
84315;SDS011;74496;52.236;5.164;2024-03-02T13:01:25;5.22;;;1.48;;
84315;SDS011;74496;52.236;5.164;2024-03-02T13:03:54;3.93;;;1.93;;
84315;SDS011;74496;52.236;5.164;2024-03-02T13:06:22;2.13;;;1.20;;
84315;SDS011;74496;52.236;5.164;2024-03-02T13:08:49;2.92;;;1.35;;
84315;SDS011;74496;52.236;5.164;2024-03-02T13:11:16;2.20;;;1.25;;
84315;SDS011;74496;52.236;5.164;2024-03-02T13:13:43;3.70;;;1.30;;
84315;SDS011;74496;52.236;5.164;2024-03-02T13:16:09;2.27;;;1.30;;
84315;SDS011;74496;52.236;5.164;2024-03-02T13:18:38;2.67;;;1.30;;
84315;SDS011;74496;52.236;5.164;2024-03-02T13:21:06;2.33;;;1.33;;
84315;SDS011;74496;52.236;5.164;2024-03-02T13:23:33;2.80;;;1.30;;
84315;SDS011;74496;52.236;5.164;2024-03-02T13:25:59;2.58;;;1.30;;
84315;SDS011;74496;52.236;5.164;2024-03-02T13:28:26;2.77;;;1.40;;
84315;SDS011;74496;52.236;5.164;2024-03-02T13:30:53;1.60;;;1.17;;
84315;SDS011;74496;52.236;5.164;2024-03-02T13:33:20;1.67;;;1.33;;
84315;SDS011;74496;52.236;5.164;2024-03-02T13:35:48;1.95;;;1.20;;
84315;SDS011;74496;52.236;5.164;2024-03-02T13:38:16;3.88;;;1.45;;
84315;SDS011;74496;52.236;5.164;2024-03-02T13:40:43;1.53;;;1.17;;
84315;SDS011;74496;52.236;5.164;2024-03-02T13:43:10;4.28;;;1.58;;
84315;SDS011;74496;52.236;5.164;2024-03-02T13:45:37;3.53;;;1.40;;
84315;SDS011;74496;52.236;5.164;2024-03-02T13:48:03;2.28;;;1.20;;
84315;SDS011;74496;52.236;5.164;2024-03-02T13:50:31;4.03;;;1.52;;
84315;SDS011;74496;52.236;5.164;2024-03-02T13:52:58;2.17;;;1.30;;
84315;SDS011;74496;52.236;5.164;2024-03-02T13:55:26;2.55;;;1.10;;
84315;SDS011;74496;52.236;5.164;2024-03-02T13:57:52;1.55;;;1.00;;
84315;SDS011;74496;52.236;5.164;2024-03-02T14:00:19;2.45;;;1.13;;
84315;SDS011;74496;52.236;5.164;2024-03-02T14:02:46;2.90;;;1.20;;
84315;SDS011;74496;52.236;5.164;2024-03-02T14:05:14;6.23;;;1.40;;
84315;SDS011;74496;52.236;5.164;2024-03-02T14:07:41;2.65;;;1.13;;
84315;SDS011;74496;52.236;5.164;2024-03-02T14:10:09;1.70;;;0.90;;
84315;SDS011;74496;52.236;5.164;2024-03-02T14:12:37;3.45;;;0.90;;
84315;SDS011;74496;52.236;5.164;2024-03-02T14:15:04;2.67;;;1.58;;
84315;SDS011;74496;52.236;5.164;2024-03-02T14:17:32;3.47;;;1.33;;
84315;SDS011;74496;52.236;5.164;2024-03-02T14:19:58;3.92;;;1.13;;
84315;SDS011;74496;52.236;5.164;2024-03-02T14:22:25;2.45;;;1.17;;
84315;SDS011;74496;52.236;5.164;2024-03-02T14:24:52;3.75;;;1.10;;
84315;SDS011;74496;52.236;5.164;2024-03-02T14:27:19;5.50;;;1.20;;
84315;SDS011;74496;52.236;5.164;2024-03-02T14:29:47;3.23;;;1.40;;
84315;SDS011;74496;52.236;5.164;2024-03-02T14:32:17;5.88;;;1.00;;
84315;SDS011;74496;52.236;5.164;2024-03-02T14:34:44;5.10;;;1.08;;
84315;SDS011;74496;52.236;5.164;2024-03-02T14:37:11;2.45;;;1.15;;
84315;SDS011;74496;52.236;5.164;2024-03-02T14:39:38;2.45;;;1.40;;
84315;SDS011;74496;52.236;5.164;2024-03-02T14:42:05;2.23;;;1.20;;
84315;SDS011;74496;52.236;5.164;2024-03-02T14:44:32;3.33;;;1.08;;
84315;SDS011;74496;52.236;5.164;2024-03-02T14:47:00;1.38;;;1.20;;
84315;SDS011;74496;52.236;5.164;2024-03-02T14:49:29;2.20;;;1.50;;
84315;SDS011;74496;52.236;5.164;2024-03-02T14:51:56;4.18;;;1.38;;
84315;SDS011;74496;52.236;5.164;2024-03-02T14:54:23;2.37;;;1.57;;